sensor_id;sensor_type;location;lat;lon;timestamp;pressure;altitude;pressure_sealevel;temperature;humidity
34658;BME280;20865;43.312;27.152;2023-05-19T00:01:42;100277.57;;;22.90;45.13
34658;BME280;20865;43.312;27.152;2023-05-19T00:04:13;100271.52;;;22.86;45.12
34658;BME280;20865;43.312;27.152;2023-05-19T00:06:40;100270.91;;;22.88;45.31
34658;BME280;20865;43.312;27.152;2023-05-19T00:09:07;100270.41;;;22.89;45.44
34658;BME280;20865;43.312;27.152;2023-05-19T00:11:35;100270.15;;;22.86;45.51
34658;BME280;20865;43.312;27.152;2023-05-19T00:14:04;100274.87;;;22.84;45.55
34658;BME280;20865;43.312;27.152;2023-05-19T00:16:32;100280.06;;;22.81;45.47
34658;BME280;20865;43.312;27.152;2023-05-19T00:19:00;100272.40;;;22.81;45.59
34658;BME280;20865;43.312;27.152;2023-05-19T00:21:27;100273.14;;;22.77;45.60
34658;BME280;20865;43.312;27.152;2023-05-19T00:23:56;100274.11;;;22.76;45.53
34658;BME280;20865;43.312;27.152;2023-05-19T00:26:23;100271.27;;;22.72;45.60
34658;BME280;20865;43.312;27.152;2023-05-19T00:28:51;100272.27;;;22.71;45.56
34658;BME280;20865;43.312;27.152;2023-05-19T00:31:18;100268.08;;;22.67;45.64
34658;BME280;20865;43.312;27.152;2023-05-19T00:33:45;100265.95;;;22.65;45.71
34658;BME280;20865;43.312;27.152;2023-05-19T00:36:12;100268.17;;;22.66;45.77
34658;BME280;20865;43.312;27.152;2023-05-19T00:38:39;100283.30;;;22.64;45.80
34658;BME280;20865;43.312;27.152;2023-05-19T00:41:06;100282.93;;;22.63;45.82
34658;BME280;20865;43.312;27.152;2023-05-19T00:43:33;100285.38;;;22.55;46.02
34658;BME280;20865;43.312;27.152;2023-05-19T00:45:59;100288.73;;;22.53;46.08
34658;BME280;20865;43.312;27.152;2023-05-19T00:48:26;100289.60;;;22.53;46.07
34658;BME280;20865;43.312;27.152;2023-05-19T00:50:54;100287.72;;;22.48;46.09
34658;BME280;20865;43.312;27.152;2023-05-19T00:53:23;100287.72;;;22.48;46.04
34658;BME280;20865;43.312;27.152;2023-05-19T00:55:50;100290.70;;;22.51;46.00
34658;BME280;20865;43.312;27.152;2023-05-19T00:58:17;100298.50;;;22.50;45.93
34658;BME280;20865;43.312;27.152;2023-05-19T01:00:44;100296.75;;;22.49;45.93
34658;BME280;20865;43.312;27.152;2023-05-19T01:03:10;100291.56;;;22.51;45.86
34658;BME280;20865;43.312;27.152;2023-05-19T01:05:40;100299.87;;;22.50;45.78
34658;BME280;20865;43.312;27.152;2023-05-19T01:08:09;100303.33;;;22.46;45.75
34658;BME280;20865;43.312;27.152;2023-05-19T01:10:36;100299.61;;;22.47;45.79
34658;BME280;20865;43.312;27.152;2023-05-19T01:13:03;100306.66;;;22.44;45.72
34658;BME280;20865;43.312;27.152;2023-05-19T01:15:32;100303.33;;;22.46;45.73
34658;BME280;20865;43.312;27.152;2023-05-19T01:18:14;100306.55;;;22.46;45.71
34658;BME280;20865;43.312;27.152;2023-05-19T01:23:11;100306.27;;;22.38;45.87
34658;BME280;20865;43.312;27.152;2023-05-19T01:30:54;100306.66;;;22.39;45.87
34658;BME280;20865;43.312;27.152;2023-05-19T01:33:22;100300.60;;;22.35;45.84
34658;BME280;20865;43.312;27.152;2023-05-19T01:35:49;100302.69;;;22.37;45.89
34658;BME280;20865;43.312;27.152;2023-05-19T01:38:16;100302.59;;;22.39;45.86
34658;BME280;20865;43.312;27.152;2023-05-19T01:40:44;100305.55;;;22.35;45.92
34658;BME280;20865;43.312;27.152;2023-05-19T01:43:18;100300.33;;;22.38;45.92
34658;BME280;20865;43.312;27.152;2023-05-19T01:45:40;100300.72;;;22.39;45.80
34658;BME280;20865;43.312;27.152;2023-05-19T01:48:07;100298.61;;;22.37;45.71
34658;BME280;20865;43.312;27.152;2023-05-19T01:50:34;100292.30;;;22.37;45.81
34658;BME280;20865;43.312;27.152;2023-05-19T01:53:01;100294.16;;;22.36;45.68
34658;BME280;20865;43.312;27.152;2023-05-19T01:55:28;100297.14;;;22.39;45.70
34658;BME280;20865;43.312;27.152;2023-05-19T01:58:01;100301.22;;;22.39;45.57
34658;BME280;20865;43.312;27.152;2023-05-19T02:00:39;100293.66;;;22.37;45.54
34658;BME280;20865;43.312;27.152;2023-05-19T02:08:10;100304.69;;;22.35;45.47
34658;BME280;20865;43.312;27.152;2023-05-19T02:10:38;100307.01;;;22.34;45.40
34658;BME280;20865;43.312;27.152;2023-05-19T02:13:05;100304.90;;;22.26;45.47
34658;BME280;20865;43.312;27.152;2023-05-19T02:15:36;100315.92;;;22.25;45.40
34658;BME280;20865;43.312;27.152;2023-05-19T02:18:03;100320.47;;;22.19;45.37
34658;BME280;20865;43.312;27.152;2023-05-19T02:20:30;100318.34;;;22.17;45.29
34658;BME280;20865;43.312;27.152;2023-05-19T02:22:57;100320.34;;;22.15;45.41
34658;BME280;20865;43.312;27.152;2023-05-19T02:25:24;100322.93;;;22.16;45.46
34658;BME280;20865;43.312;27.152;2023-05-19T02:27:53;100330.25;;;22.21;45.38
34658;BME280;20865;43.312;27.152;2023-05-19T02:30:20;100339.95;;;22.12;45.48
34658;BME280;20865;43.312;27.152;2023-05-19T02:32:47;100340.45;;;22.12;45.47
34658;BME280;20865;43.312;27.152;2023-05-19T02:35:14;100340.19;;;22.09;45.22
34658;BME280;20865;43.312;27.152;2023-05-19T02:37:41;100341.41;;;22.05;45.34
34658;BME280;20865;43.312;27.152;2023-05-19T02:40:08;100340.42;;;22.06;45.37
34658;BME280;20865;43.312;27.152;2023-05-19T02:42:35;100343.37;;;22.03;45.38
34658;BME280;20865;43.312;27.152;2023-05-19T02:45:02;100349.30;;;22.03;45.47
34658;BME280;20865;43.312;27.152;2023-05-19T02:47:29;100345.46;;;22.00;45.36
34658;BME280;20865;43.312;27.152;2023-05-19T02:49:56;100336.84;;;22.00;45.29
34658;BME280;20865;43.312;27.152;2023-05-19T02:52:23;100350.03;;;21.99;45.29
34658;BME280;20865;43.312;27.152;2023-05-19T02:54:50;100349.80;;;22.02;45.23
34658;BME280;20865;43.312;27.152;2023-05-19T02:57:17;100353.52;;;22.01;45.31
34658;BME280;20865;43.312;27.152;2023-05-19T02:59:43;100359.33;;;22.02;45.26
34658;BME280;20865;43.312;27.152;2023-05-19T03:02:10;100354.38;;;22.02;45.28
34658;BME280;20865;43.312;27.152;2023-05-19T03:04:37;100360.69;;;22.02;45.06
34658;BME280;20865;43.312;27.152;2023-05-19T03:07:06;100367.75;;;22.05;44.75
34658;BME280;20865;43.312;27.152;2023-05-19T03:09:37;100373.78;;;22.03;44.38
34658;BME280;20865;43.312;27.152;2023-05-19T03:12:04;100376.50;;;22.03;44.30
34658;BME280;20865;43.312;27.152;2023-05-19T03:14:32;100373.42;;;22.02;44.19
34658;BME280;20865;43.312;27.152;2023-05-19T03:16:59;100384.20;;;22.09;43.88
34658;BME280;20865;43.312;27.152;2023-05-19T03:19:26;100375.05;;;22.10;43.82
34658;BME280;20865;43.312;27.152;2023-05-19T03:21:53;100373.09;;;22.12;43.99
34658;BME280;20865;43.312;27.152;2023-05-19T03:24:21;100382.48;;;22.13;43.96
34658;BME280;20865;43.312;27.152;2023-05-19T03:26:47;100377.10;;;22.19;43.60
34658;BME280;20865;43.312;27.152;2023-05-19T03:29:15;100376.50;;;22.21;43.86
34658;BME280;20865;43.312;27.152;2023-05-19T03:31:42;100373.16;;;22.23;44.08
34658;BME280;20865;43.312;27.152;2023-05-19T03:34:09;100383.53;;;22.18;43.95
34658;BME280;20865;43.312;27.152;2023-05-19T03:36:35;100383.67;;;22.22;43.87
34658;BME280;20865;43.312;27.152;2023-05-19T03:39:04;100381.25;;;22.12;43.69
34658;BME280;20865;43.312;27.152;2023-05-19T03:41:31;100386.63;;;22.19;43.27
34658;BME280;20865;43.312;27.152;2023-05-19T03:43:58;100390.87;;;22.29;43.19
34658;BME280;20865;43.312;27.152;2023-05-19T03:46:26;100390.47;;;22.22;42.85
34658;BME280;20865;43.312;27.152;2023-05-19T03:48:53;100389.24;;;22.26;42.57
34658;BME280;20865;43.312;27.152;2023-05-19T03:51:19;100390.11;;;22.21;42.53
34658;BME280;20865;43.312;27.152;2023-05-19T03:53:46;100398.63;;;22.22;42.55
34658;BME280;20865;43.312;27.152;2023-05-19T03:56:13;100401.35;;;22.28;42.96
34658;BME280;20865;43.312;27.152;2023-05-19T03:58:41;100394.95;;;22.34;43.06
34658;BME280;20865;43.312;27.152;2023-05-19T04:01:09;100396.70;;;22.41;42.95
34658;BME280;20865;43.312;27.152;2023-05-19T04:03:36;100401.67;;;22.47;43.10
34658;BME280;20865;43.312;27.152;2023-05-19T04:06:03;100401.33;;;22.57;43.09
34658;BME280;20865;43.312;27.152;2023-05-19T04:08:30;100402.55;;;22.59;43.19
34658;BME280;20865;43.312;27.152;2023-05-19T04:10:57;100404.55;;;22.57;42.86
34658;BME280;20865;43.312;27.152;2023-05-19T04:13:24;100406.66;;;22.65;42.93
34658;BME280;20865;43.312;27.152;2023-05-19T04:15:51;100409.87;;;22.70;42.92
34658;BME280;20865;43.312;27.152;2023-05-19T04:18:18;100410.89;;;22.74;42.71
34658;BME280;20865;43.312;27.152;2023-05-19T04:20:45;100411.27;;;22.81;42.88
34658;BME280;20865;43.312;27.152;2023-05-19T04:23:14;100427.84;;;22.83;42.75
34658;BME280;20865;43.312;27.152;2023-05-19T04:25:40;100417.83;;;22.90;42.92
34658;BME280;20865;43.312;27.152;2023-05-19T04:28:07;100417.38;;;22.96;42.87
34658;BME280;20865;43.312;27.152;2023-05-19T04:30:34;100425.55;;;23.07;42.96
34658;BME280;20865;43.312;27.152;2023-05-19T04:33:01;100427.03;;;23.00;42.92
34658;BME280;20865;43.312;27.152;2023-05-19T04:35:29;100425.56;;;23.13;42.61
34658;BME280;20865;43.312;27.152;2023-05-19T04:37:56;100425.83;;;23.15;42.49
34658;BME280;20865;43.312;27.152;2023-05-19T04:40:23;100427.78;;;23.24;42.61
34658;BME280;20865;43.312;27.152;2023-05-19T04:42:51;100426.19;;;23.33;42.35
34658;BME280;20865;43.312;27.152;2023-05-19T04:45:18;100425.41;;;23.42;42.43
34658;BME280;20865;43.312;27.152;2023-05-19T04:47:45;100429.38;;;23.49;42.11
34658;BME280;20865;43.312;27.152;2023-05-19T04:50:12;100428.88;;;23.56;41.95
34658;BME280;20865;43.312;27.152;2023-05-19T04:52:40;100429.74;;;23.67;42.02
34658;BME280;20865;43.312;27.152;2023-05-19T04:55:09;100431.11;;;23.79;42.21
34658;BME280;20865;43.312;27.152;2023-05-19T04:57:36;100437.23;;;23.92;42.21
34658;BME280;20865;43.312;27.152;2023-05-19T05:00:05;100435.01;;;24.03;42.14
34658;BME280;20865;43.312;27.152;2023-05-19T05:02:33;100423.53;;;24.20;41.51
34658;BME280;20865;43.312;27.152;2023-05-19T05:05:00;100432.13;;;24.42;42.25
34658;BME280;20865;43.312;27.152;2023-05-19T05:07:27;100430.77;;;24.42;41.06
34658;BME280;20865;43.312;27.152;2023-05-19T05:09:54;100435.56;;;24.70;41.69
34658;BME280;20865;43.312;27.152;2023-05-19T05:12:21;100434.86;;;24.84;41.38
34658;BME280;20865;43.312;27.152;2023-05-19T05:14:48;100429.64;;;25.02;40.68
34658;BME280;20865;43.312;27.152;2023-05-19T05:17:16;100437.67;;;25.24;41.22
34658;BME280;20865;43.312;27.152;2023-05-19T05:19:43;100426.33;;;25.44;41.11
34658;BME280;20865;43.312;27.152;2023-05-19T05:22:10;100427.91;;;25.72;41.06
34658;BME280;20865;43.312;27.152;2023-05-19T05:24:37;100428.05;;;25.85;40.84
34658;BME280;20865;43.312;27.152;2023-05-19T05:27:04;100425.34;;;25.95;40.08
34658;BME280;20865;43.312;27.152;2023-05-19T05:29:32;100421.38;;;26.13;40.09
34658;BME280;20865;43.312;27.152;2023-05-19T05:31:59;100425.91;;;26.28;39.72
34658;BME280;20865;43.312;27.152;2023-05-19T05:34:26;100428.81;;;26.36;39.33
34658;BME280;20865;43.312;27.152;2023-05-19T05:36:53;100425.95;;;26.47;39.07
34658;BME280;20865;43.312;27.152;2023-05-19T05:39:20;100428.81;;;26.65;38.56
34658;BME280;20865;43.312;27.152;2023-05-19T05:41:47;100431.54;;;26.75;37.57
34658;BME280;20865;43.312;27.152;2023-05-19T05:44:14;100430.85;;;26.87;37.60
34658;BME280;20865;43.312;27.152;2023-05-19T05:46:41;100427.17;;;27.05;37.11
34658;BME280;20865;43.312;27.152;2023-05-19T05:49:08;100428.81;;;27.22;37.19
34658;BME280;20865;43.312;27.152;2023-05-19T05:51:37;100432.38;;;27.18;38.13
34658;BME280;20865;43.312;27.152;2023-05-19T05:54:04;100418.03;;;27.34;37.69
34658;BME280;20865;43.312;27.152;2023-05-19T05:56:32;100427.16;;;27.39;37.53
34658;BME280;20865;43.312;27.152;2023-05-19T05:58:59;100431.88;;;27.46;37.57
34658;BME280;20865;43.312;27.152;2023-05-19T06:01:25;100430.81;;;27.43;37.88
34658;BME280;20865;43.312;27.152;2023-05-19T06:03:52;100425.33;;;27.43;37.87
34658;BME280;20865;43.312;27.152;2023-05-19T06:06:19;100419.07;;;27.65;37.60
34658;BME280;20865;43.312;27.152;2023-05-19T06:08:46;100420.12;;;27.77;37.46
34658;BME280;20865;43.312;27.152;2023-05-19T06:11:13;100428.30;;;27.87;37.70
34658;BME280;20865;43.312;27.152;2023-05-19T06:13:40;100421.13;;;27.90;37.28
34658;BME280;20865;43.312;27.152;2023-05-19T06:16:07;100429.16;;;28.06;36.81
34658;BME280;20865;43.312;27.152;2023-05-19T06:18:34;100433.53;;;28.12;36.50
34658;BME280;20865;43.312;27.152;2023-05-19T06:21:01;100427.25;;;27.74;37.15
34658;BME280;20865;43.312;27.152;2023-05-19T06:23:29;100431.28;;;27.66;37.40
34658;BME280;20865;43.312;27.152;2023-05-19T06:25:55;100431.28;;;27.66;37.55
34658;BME280;20865;43.312;27.152;2023-05-19T06:28:22;100436.98;;;27.69;37.61
34658;BME280;20865;43.312;27.152;2023-05-19T06:30:50;100444.72;;;27.83;37.26
34658;BME280;20865;43.312;27.152;2023-05-19T06:33:17;100452.33;;;28.21;36.23
34658;BME280;20865;43.312;27.152;2023-05-19T06:35:44;100449.56;;;28.53;35.83
34658;BME280;20865;43.312;27.152;2023-05-19T06:38:11;100453.03;;;28.77;35.94
34658;BME280;20865;43.312;27.152;2023-05-19T06:40:38;100444.83;;;28.85;34.12
34658;BME280;20865;43.312;27.152;2023-05-19T06:43:04;100451.20;;;28.89;34.05
34658;BME280;20865;43.312;27.152;2023-05-19T06:45:31;100463.00;;;29.00;33.61
34658;BME280;20865;43.312;27.152;2023-05-19T06:47:58;100460.97;;;29.02;32.72
34658;BME280;20865;43.312;27.152;2023-05-19T06:50:25;100462.42;;;29.18;33.08
34658;BME280;20865;43.312;27.152;2023-05-19T06:52:52;100458.70;;;29.27;33.05
34658;BME280;20865;43.312;27.152;2023-05-19T06:55:19;100458.08;;;29.37;33.19
34658;BME280;20865;43.312;27.152;2023-05-19T06:57:46;100458.80;;;29.43;32.81
34658;BME280;20865;43.312;27.152;2023-05-19T07:00:13;100461.58;;;29.52;32.50
34658;BME280;20865;43.312;27.152;2023-05-19T07:02:41;100464.45;;;29.72;33.18
34658;BME280;20865;43.312;27.152;2023-05-19T07:05:08;100468.14;;;29.93;32.19
34658;BME280;20865;43.312;27.152;2023-05-19T07:07:35;100459.16;;;29.87;30.38
34658;BME280;20865;43.312;27.152;2023-05-19T07:10:04;100465.58;;;30.00;30.98
34658;BME280;20865;43.312;27.152;2023-05-19T07:12:31;100461.98;;;30.11;29.62
34658;BME280;20865;43.312;27.152;2023-05-19T07:14:57;100462.62;;;29.89;29.64
34658;BME280;20865;43.312;27.152;2023-05-19T07:17:24;100463.86;;;29.99;30.36
34658;BME280;20865;43.312;27.152;2023-05-19T07:19:51;100460.08;;;30.12;30.67
34658;BME280;20865;43.312;27.152;2023-05-19T07:22:18;100460.86;;;30.30;30.19
34658;BME280;20865;43.312;27.152;2023-05-19T07:24:45;100465.96;;;30.13;30.01
34658;BME280;20865;43.312;27.152;2023-05-19T07:27:12;100458.73;;;29.61;30.90
34658;BME280;20865;43.312;27.152;2023-05-19T07:29:39;100457.56;;;29.68;30.54
34658;BME280;20865;43.312;27.152;2023-05-19T07:32:06;100460.06;;;29.96;30.08
34658;BME280;20865;43.312;27.152;2023-05-19T07:34:32;100463.16;;;30.01;30.16
34658;BME280;20865;43.312;27.152;2023-05-19T07:37:00;100465.39;;;29.97;29.82
34658;BME280;20865;43.312;27.152;2023-05-19T07:39:28;100459.73;;;30.03;30.78
34658;BME280;20865;43.312;27.152;2023-05-19T07:41:56;100459.03;;;29.97;30.24
34658;BME280;20865;43.312;27.152;2023-05-19T07:44:24;100465.44;;;30.09;30.42
34658;BME280;20865;43.312;27.152;2023-05-19T07:46:53;100464.10;;;30.26;30.46
34658;BME280;20865;43.312;27.152;2023-05-19T07:49:20;100463.24;;;30.21;30.40
34658;BME280;20865;43.312;27.152;2023-05-19T07:51:46;100459.08;;;30.13;30.79
34658;BME280;20865;43.312;27.152;2023-05-19T07:54:13;100465.40;;;30.05;29.75
34658;BME280;20865;43.312;27.152;2023-05-19T07:56:40;100460.67;;;30.40;29.66
34658;BME280;20865;43.312;27.152;2023-05-19T07:59:07;100462.23;;;30.47;30.42
34658;BME280;20865;43.312;27.152;2023-05-19T08:01:34;100457.58;;;30.72;29.89
34658;BME280;20865;43.312;27.152;2023-05-19T08:04:01;100462.10;;;30.77;29.50
34658;BME280;20865;43.312;27.152;2023-05-19T08:06:28;100464.34;;;30.90;29.10
34658;BME280;20865;43.312;27.152;2023-05-19T08:08:54;100466.73;;;30.89;29.26
34658;BME280;20865;43.312;27.152;2023-05-19T08:11:21;100470.32;;;31.09;28.76
34658;BME280;20865;43.312;27.152;2023-05-19T08:13:48;100471.20;;;31.14;28.95
34658;BME280;20865;43.312;27.152;2023-05-19T08:16:15;100464.14;;;31.07;29.39
34658;BME280;20865;43.312;27.152;2023-05-19T08:18:42;100461.72;;;31.08;29.62
34658;BME280;20865;43.312;27.152;2023-05-19T08:21:09;100462.22;;;31.12;29.76
34658;BME280;20865;43.312;27.152;2023-05-19T08:23:36;100467.73;;;31.24;29.38
34658;BME280;20865;43.312;27.152;2023-05-19T08:26:03;100462.41;;;31.02;28.52
34658;BME280;20865;43.312;27.152;2023-05-19T08:28:30;100461.52;;;31.18;28.60
34658;BME280;20865;43.312;27.152;2023-05-19T08:30:57;100460.97;;;31.43;28.92
34658;BME280;20865;43.312;27.152;2023-05-19T08:33:24;100468.80;;;31.71;28.81
34658;BME280;20865;43.312;27.152;2023-05-19T08:35:51;100470.47;;;31.88;27.68
34658;BME280;20865;43.312;27.152;2023-05-19T08:38:17;100470.99;;;31.88;27.38
34658;BME280;20865;43.312;27.152;2023-05-19T08:40:45;100475.11;;;31.92;26.65
34658;BME280;20865;43.312;27.152;2023-05-19T08:43:13;100462.98;;;31.97;27.18
34658;BME280;20865;43.312;27.152;2023-05-19T08:45:42;100469.89;;;31.97;27.53
34658;BME280;20865;43.312;27.152;2023-05-19T08:48:08;100462.69;;;31.92;28.34
34658;BME280;20865;43.312;27.152;2023-05-19T08:50:38;100454.54;;;32.21;27.72
34658;BME280;20865;43.312;27.152;2023-05-19T08:53:19;100462.52;;;32.47;26.93
34658;BME280;20865;43.312;27.152;2023-05-19T08:58:23;100464.06;;;32.46;25.77
34658;BME280;20865;43.312;27.152;2023-05-19T09:00:51;100463.38;;;32.48;25.77
34658;BME280;20865;43.312;27.152;2023-05-19T09:03:18;100460.81;;;32.42;26.07
34658;BME280;20865;43.312;27.152;2023-05-19T09:05:46;100457.11;;;32.54;26.44
34658;BME280;20865;43.312;27.152;2023-05-19T09:08:13;100449.95;;;32.64;25.88
34658;BME280;20865;43.312;27.152;2023-05-19T09:10:40;100430.40;;;32.65;25.98
34658;BME280;20865;43.312;27.152;2023-05-19T09:13:07;100446.27;;;32.48;26.04
34658;BME280;20865;43.312;27.152;2023-05-19T09:15:34;100441.78;;;32.66;25.65
34658;BME280;20865;43.312;27.152;2023-05-19T09:18:14;100442.87;;;32.80;25.16
34658;BME280;20865;43.312;27.152;2023-05-19T09:20:40;100439.39;;;33.20;25.29
34658;BME280;20865;43.312;27.152;2023-05-19T09:23:17;100436.80;;;33.33;25.07
34658;BME280;20865;43.312;27.152;2023-05-19T09:25:45;100439.52;;;33.23;24.95
34658;BME280;20865;43.312;27.152;2023-05-19T09:28:10;100434.50;;;33.37;25.52
34658;BME280;20865;43.312;27.152;2023-05-19T09:30:36;100439.73;;;33.51;25.41
34658;BME280;20865;43.312;27.152;2023-05-19T09:33:04;100423.14;;;33.47;24.51
34658;BME280;20865;43.312;27.152;2023-05-19T09:35:33;100430.45;;;33.48;24.99
34658;BME280;20865;43.312;27.152;2023-05-19T09:38:00;100434.80;;;33.42;24.80
34658;BME280;20865;43.312;27.152;2023-05-19T09:40:27;100425.36;;;33.22;24.50
34658;BME280;20865;43.312;27.152;2023-05-19T09:42:54;100422.64;;;33.03;24.51
34658;BME280;20865;43.312;27.152;2023-05-19T09:45:20;100428.83;;;32.86;25.15
34658;BME280;20865;43.312;27.152;2023-05-19T09:47:47;100436.53;;;32.76;25.09
34658;BME280;20865;43.312;27.152;2023-05-19T09:50:14;100431.08;;;32.67;25.30
34658;BME280;20865;43.312;27.152;2023-05-19T09:52:42;100437.89;;;32.57;25.75
34658;BME280;20865;43.312;27.152;2023-05-19T09:55:10;100440.45;;;32.62;25.74
34658;BME280;20865;43.312;27.152;2023-05-19T09:57:37;100440.94;;;32.39;27.43
34658;BME280;20865;43.312;27.152;2023-05-19T10:00:08;100454.91;;;32.18;28.95
34658;BME280;20865;43.312;27.152;2023-05-19T10:02:39;100450.27;;;32.15;29.89
34658;BME280;20865;43.312;27.152;2023-05-19T10:05:07;100448.09;;;32.06;30.31
34658;BME280;20865;43.312;27.152;2023-05-19T10:07:35;100447.27;;;31.97;29.78
34658;BME280;20865;43.312;27.152;2023-05-19T10:10:02;100447.82;;;31.93;28.75
34658;BME280;20865;43.312;27.152;2023-05-19T10:12:30;100443.34;;;31.92;29.01
34658;BME280;20865;43.312;27.152;2023-05-19T10:14:57;100441.58;;;31.99;27.88
34658;BME280;20865;43.312;27.152;2023-05-19T10:17:24;100445.39;;;31.98;27.39
34658;BME280;20865;43.312;27.152;2023-05-19T10:19:53;100449.47;;;32.06;26.76
34658;BME280;20865;43.312;27.152;2023-05-19T10:22:19;100449.67;;;32.05;27.14
34658;BME280;20865;43.312;27.152;2023-05-19T10:24:46;100448.45;;;32.03;27.92
34658;BME280;20865;43.312;27.152;2023-05-19T10:27:13;100444.48;;;32.06;27.34
34658;BME280;20865;43.312;27.152;2023-05-19T10:29:41;100451.70;;;32.07;27.13
34658;BME280;20865;43.312;27.152;2023-05-19T10:32:13;100445.23;;;31.95;26.81
34658;BME280;20865;43.312;27.152;2023-05-19T10:37:22;100450.44;;;31.82;27.48
34658;BME280;20865;43.312;27.152;2023-05-19T10:39:44;100436.47;;;31.84;25.72
34658;BME280;20865;43.312;27.152;2023-05-19T10:42:12;100450.96;;;31.82;25.03
34658;BME280;20865;43.312;27.152;2023-05-19T10:44:52;100432.66;;;31.85;24.45
34658;BME280;20865;43.312;27.152;2023-05-19T10:47:23;100441.49;;;31.80;23.98
34658;BME280;20865;43.312;27.152;2023-05-19T10:49:53;100442.88;;;31.80;24.21
34658;BME280;20865;43.312;27.152;2023-05-19T10:52:21;100450.44;;;31.82;24.30
34658;BME280;20865;43.312;27.152;2023-05-19T10:54:49;100449.16;;;31.62;24.87
34658;BME280;20865;43.312;27.152;2023-05-19T10:57:19;100448.67;;;31.54;25.09
34658;BME280;20865;43.312;27.152;2023-05-19T10:59:46;100451.68;;;31.28;26.08
34658;BME280;20865;43.312;27.152;2023-05-19T11:05:15;100453.77;;;31.18;27.44
34658;BME280;20865;43.312;27.152;2023-05-19T11:07:53;100453.58;;;31.19;27.71
34658;BME280;20865;43.312;27.152;2023-05-19T11:10:12;100452.58;;;31.08;27.40
34658;BME280;20865;43.312;27.152;2023-05-19T11:12:44;100444.47;;;31.15;27.72
34658;BME280;20865;43.312;27.152;2023-05-19T11:15:11;100447.06;;;31.08;27.47
34658;BME280;20865;43.312;27.152;2023-05-19T11:17:39;100444.80;;;31.16;27.76
34658;BME280;20865;43.312;27.152;2023-05-19T11:20:19;100442.22;;;31.18;27.61
34658;BME280;20865;43.312;27.152;2023-05-19T11:22:37;100437.73;;;31.21;27.33
34658;BME280;20865;43.312;27.152;2023-05-19T11:25:05;100430.81;;;31.17;27.69
34658;BME280;20865;43.312;27.152;2023-05-19T11:27:33;100431.36;;;31.21;28.09
34658;BME280;20865;43.312;27.152;2023-05-19T11:32:35;100436.52;;;31.32;28.55
34658;BME280;20865;43.312;27.152;2023-05-19T11:35:07;100433.22;;;31.28;28.94
34658;BME280;20865;43.312;27.152;2023-05-19T11:37:34;100428.75;;;31.36;29.01
34658;BME280;20865;43.312;27.152;2023-05-19T11:40:05;100424.08;;;31.36;29.06
34658;BME280;20865;43.312;27.152;2023-05-19T11:42:33;100420.98;;;31.35;29.60
34658;BME280;20865;43.312;27.152;2023-05-19T11:45:00;100412.52;;;31.37;29.80
34658;BME280;20865;43.312;27.152;2023-05-19T11:47:27;100411.98;;;31.41;29.95
34658;BME280;20865;43.312;27.152;2023-05-19T11:49:54;100418.45;;;31.61;30.01
34658;BME280;20865;43.312;27.152;2023-05-19T11:52:24;100409.60;;;31.73;31.14
34658;BME280;20865;43.312;27.152;2023-05-19T11:54:53;100414.18;;;31.85;30.48
34658;BME280;20865;43.312;27.152;2023-05-19T11:57:21;100410.73;;;31.83;30.47
34658;BME280;20865;43.312;27.152;2023-05-19T11:59:48;100416.78;;;31.83;29.96
34658;BME280;20865;43.312;27.152;2023-05-19T12:02:20;100424.59;;;31.75;29.16
34658;BME280;20865;43.312;27.152;2023-05-19T12:04:49;100435.33;;;31.66;31.00
34658;BME280;20865;43.312;27.152;2023-05-19T12:07:21;100423.52;;;31.49;32.94
34658;BME280;20865;43.312;27.152;2023-05-19T12:09:48;100418.69;;;31.47;31.39
34658;BME280;20865;43.312;27.152;2023-05-19T12:12:16;100421.49;;;31.39;32.84
34658;BME280;20865;43.312;27.152;2023-05-19T12:14:43;100420.82;;;31.33;34.09
34658;BME280;20865;43.312;27.152;2023-05-19T12:17:15;100420.82;;;31.33;34.00
34658;BME280;20865;43.312;27.152;2023-05-19T12:19:42;100411.85;;;31.22;33.55
34658;BME280;20865;43.312;27.152;2023-05-19T12:22:09;100411.85;;;31.22;33.99
34658;BME280;20865;43.312;27.152;2023-05-19T12:24:37;100415.14;;;31.14;34.02
34658;BME280;20865;43.312;27.152;2023-05-19T12:27:11;100412.53;;;31.20;33.84
34658;BME280;20865;43.312;27.152;2023-05-19T12:29:38;100412.70;;;31.23;34.14
34658;BME280;20865;43.312;27.152;2023-05-19T12:32:08;100412.55;;;31.24;34.40
34658;BME280;20865;43.312;27.152;2023-05-19T12:34:36;100413.38;;;31.29;33.25
34658;BME280;20865;43.312;27.152;2023-05-19T12:37:03;100405.95;;;31.38;33.85
34658;BME280;20865;43.312;27.152;2023-05-19T12:39:30;100404.20;;;31.45;33.10
34658;BME280;20865;43.312;27.152;2023-05-19T12:42:08;100399.17;;;31.48;31.72
34658;BME280;20865;43.312;27.152;2023-05-19T12:44:35;100398.92;;;31.70;31.39
34658;BME280;20865;43.312;27.152;2023-05-19T12:47:04;100401.18;;;31.67;30.44
34658;BME280;20865;43.312;27.152;2023-05-19T12:49:32;100400.27;;;31.74;30.42
34658;BME280;20865;43.312;27.152;2023-05-19T12:52:02;100400.08;;;31.80;29.08
34658;BME280;20865;43.312;27.152;2023-05-19T12:54:33;100401.45;;;31.80;28.30
34658;BME280;20865;43.312;27.152;2023-05-19T12:56:59;100403.25;;;31.65;28.59
34658;BME280;20865;43.312;27.152;2023-05-19T12:59:26;100400.43;;;31.73;28.70
34658;BME280;20865;43.312;27.152;2023-05-19T13:01:54;100392.73;;;31.64;27.40
34658;BME280;20865;43.312;27.152;2023-05-19T13:04:21;100392.40;;;31.63;27.46
34658;BME280;20865;43.312;27.152;2023-05-19T13:06:48;100395.88;;;31.57;27.53